Time;durP1;ratioP1;P1;durP2;ratioP2;P2;SDS_P1;SDS_P2;PMS_P1;PMS_P2;Temp;Humidity;BMP_temperature;BMP_pressure;BME280_temperature;BME280_humidity;BME280_pressure;Samples;Min_cycle;Max_cycle;Signal;HPM_P1;HPM_P2
2022/06/26 00:00:19;;;;;;;4.50;2.53;;;17.20;99.90;;;;;;5022922;28;20611;-82
2022/06/26 00:02:46;;;;;;;2.37;2.17;;;17.20;99.90;;;;;;5021185;28;20175;-82
2022/06/26 00:05:12;;;;;;;2.97;2.10;;;17.20;99.90;;;;;;5020144;28;20206;-82
2022/06/26 00:07:38;;;;;;;7.03;2.53;;;17.10;99.90;;;;;;5020193;28;20189;-82
2022/06/26 00:10:06;;;;;;;4.20;2.00;;;17.10;99.90;;;;;;5016602;28;20293;-82
2022/06/26 00:12:32;;;;;;;2.10;1.90;;;17.20;99.90;;;;;;5016292;28;20612;-82
2022/06/26 00:14:58;;;;;;;3.13;2.23;;;17.20;99.90;;;;;;5014243;28;20245;-82
2022/06/26 00:17:24;;;;;;;3.20;2.20;;;17.20;99.90;;;;;;5022686;28;20213;-82
2022/06/26 00:19:49;;;;;;;2.40;2.20;;;17.20;99.90;;;;;;5025473;28;20683;-83
2022/06/26 00:22:16;;;;;;;4.13;2.10;;;17.20;99.90;;;;;;5024449;28;20191;-83
2022/06/26 00:24:43;;;;;;;3.37;1.93;;;17.20;99.90;;;;;;5023321;28;20255;-83
2022/06/26 00:27:09;;;;;;;3.27;1.80;;;17.10;99.90;;;;;;5024865;28;20205;-83
2022/06/26 00:29:35;;;;;;;3.50;2.40;;;17.20;99.90;;;;;;5027714;28;20194;-82
2022/06/26 00:32:03;;;;;;;3.90;2.03;;;17.10;99.90;;;;;;5023569;28;20203;-83
2022/06/26 00:34:29;;;;;;;3.47;1.83;;;17.10;99.90;;;;;;5023724;28;20262;-84
2022/06/26 00:36:55;;;;;;;2.80;2.10;;;17.10;99.90;;;;;;5023453;28;20595;-83
2022/06/26 00:39:20;;;;;;;3.00;1.80;;;17.10;99.90;;;;;;5025498;28;20167;-84
2022/06/26 00:41:46;;;;;;;3.97;1.53;;;17.20;99.90;;;;;;5023416;28;20293;-83
2022/06/26 00:44:17;;;;;;;1.73;1.50;;;17.20;99.90;;;;;;5023933;28;20182;-84
2022/06/26 00:46:44;;;;;;;1.40;1.30;;;17.20;99.90;;;;;;5023675;28;20171;-84
2022/06/26 00:49:10;;;;;;;2.97;1.47;;;17.20;99.90;;;;;;5025242;28;20645;-83
2022/06/26 00:51:40;;;;;;;1.67;1.40;;;17.30;99.90;;;;;;5025014;28;20222;-83
2022/06/26 00:54:08;;;;;;;1.23;1.13;;;17.30;99.90;;;;;;5023535;28;20249;-82
2022/06/26 00:56:37;;;;;;;2.03;1.20;;;17.30;99.90;;;;;;5024238;28;20258;-83
2022/06/26 00:59:04;;;;;;;1.37;1.27;;;17.30;99.90;;;;;;5023781;28;20321;-83
2022/06/26 01:01:30;;;;;;;1.93;1.43;;;17.30;99.90;;;;;;5023181;28;20194;-82
2022/06/26 01:03:56;;;;;;;3.43;1.90;;;17.30;99.90;;;;;;5024636;28;20189;-83
2022/06/26 01:06:22;;;;;;;2.27;1.90;;;17.30;99.90;;;;;;5026462;28;20214;-83
2022/06/26 01:08:47;;;;;;;2.50;1.53;;;17.30;99.90;;;;;;5028849;28;20193;-82
2022/06/26 01:11:20;;;;;;;1.97;1.77;;;17.30;99.90;;;;;;5027685;28;20228;-82
2022/06/26 01:13:52;;;;;;;3.67;1.50;;;17.40;99.90;;;;;;5024795;28;20228;-83
2022/06/26 01:16:19;;;;;;;2.77;1.50;;;17.40;99.90;;;;;;5026018;28;20193;-82
2022/06/26 01:18:48;;;;;;;1.87;1.33;;;17.40;99.90;;;;;;5022390;28;20610;-82
2022/06/26 01:21:15;;;;;;;1.53;1.30;;;17.50;99.90;;;;;;5021189;28;20207;-82
2022/06/26 01:23:41;;;;;;;1.50;1.33;;;17.50;99.90;;;;;;5022935;28;20179;-82
2022/06/26 01:26:07;;;;;;;1.67;1.23;;;17.50;99.90;;;;;;5019590;28;20588;-81
2022/06/26 01:28:33;;;;;;;1.50;1.20;;;17.60;99.90;;;;;;5017487;28;20194;-81
2022/06/26 01:30:59;;;;;;;2.43;1.20;;;17.60;99.90;;;;;;5017553;28;20534;-81
2022/06/26 01:33:24;;;;;;;3.27;1.20;;;17.60;99.90;;;;;;5015918;28;20233;-81
2022/06/26 01:35:50;;;;;;;1.20;1.10;;;;;;;;;;5019377;28;20182;-81
2022/06/26 01:38:20;;;;;;;2.33;1.20;;;17.70;99.90;;;;;;5021013;28;20186;-81
2022/06/26 01:40:46;;;;;;;1.47;1.37;;;17.70;99.90;;;;;;5020401;28;20204;-82
2022/06/26 01:43:17;;;;;;;2.50;1.00;;;17.80;99.90;;;;;;5022872;28;20213;-82
2022/06/26 01:45:54;;;;;;;3.07;1.23;;;17.80;99.90;;;;;;5019580;28;20175;-81
2022/06/26 01:48:20;;;;;;;2.30;1.00;;;17.80;99.90;;;;;;5021448;28;20162;-81
2022/06/26 01:50:47;;;;;;;1.87;1.07;;;17.80;99.90;;;;;;5019299;28;20210;-81
2022/06/26 01:53:14;;;;;;;1.10;1.00;;;17.80;99.90;;;;;;5019331;28;20221;-80
2022/06/26 01:55:40;;;;;;;1.10;0.97;;;17.80;99.90;;;;;;5020616;28;20198;-82
2022/06/26 01:58:06;;;;;;;1.30;1.00;;;17.80;99.90;;;;;;5020412;28;20181;-82
2022/06/26 02:00:37;;;;;;;1.67;1.13;;;17.80;99.90;;;;;;5019040;28;20230;-81
2022/06/26 02:03:04;;;;;;;2.20;1.07;;;17.80;99.90;;;;;;5018897;28;20585;-80
2022/06/26 02:05:30;;;;;;;1.50;0.90;;;17.90;99.90;;;;;;5018435;28;20619;-81
2022/06/26 02:07:56;;;;;;;2.00;1.20;;;17.90;99.90;;;;;;5017613;28;20206;-81
2022/06/26 02:15:53;;;;;;;1.13;1.00;;;18.20;99.90;;;;;;5019884;28;20249;-82
2022/06/26 02:18:20;;;;;;;2.40;0.97;;;18.20;99.90;;;;;;5018957;28;20606;-81
2022/06/26 02:20:46;;;;;;;5.17;1.10;;;18.30;99.90;;;;;;5017030;28;20799;-83
2022/06/26 02:23:13;;;;;;;2.03;1.00;;;18.40;99.90;;;;;;5019902;28;21108;-83
2022/06/26 02:25:39;;;;;;;1.20;0.97;;;18.40;99.90;;;;;;5023945;28;20179;-83
2022/06/26 02:28:05;;;;;;;0.97;0.93;;;18.40;99.90;;;;;;5021850;28;20218;-83
2022/06/26 02:30:32;;;;;;;4.27;1.10;;;18.30;99.90;;;;;;5022813;28;20218;-83
2022/06/26 02:32:58;;;;;;;1.20;1.00;;;18.30;99.90;;;;;;5023517;28;20312;-82
2022/06/26 02:35:25;;;;;;;1.70;1.07;;;18.20;99.90;;;;;;5026424;28;20184;-84
2022/06/26 02:37:51;;;;;;;1.40;1.27;;;18.20;99.90;;;;;;5025863;28;20195;-83
2022/06/26 02:40:19;;;;;;;1.70;1.00;;;18.10;99.90;;;;;;5026179;28;20193;-84
2022/06/26 02:42:45;;;;;;;1.13;1.03;;;;;;;;;;5027292;28;20179;-84
2022/06/26 02:45:11;;;;;;;1.93;1.33;;;18.00;99.90;;;;;;5025625;28;20639;-83
2022/06/26 02:47:38;;;;;;;2.10;1.13;;;18.00;99.90;;;;;;5024131;28;20646;-84
2022/06/26 02:50:04;;;;;;;1.13;1.03;;;17.90;99.90;;;;;;5025297;28;20227;-84
2022/06/26 02:52:31;;;;;;;1.43;1.10;;;17.90;99.90;;;;;;5025177;28;20615;-83
2022/06/26 02:54:56;;;;;;;3.63;1.10;;;17.90;99.90;;;;;;5026960;28;20524;-84
2022/06/26 02:57:22;;;;;;;2.33;1.30;;;;;;;;;;5028669;28;20199;-84
2022/06/26 02:59:48;;;;;;;2.37;1.10;;;17.70;99.90;;;;;;5030555;28;20237;-84
2022/06/26 03:02:14;;;;;;;2.33;1.30;;;17.70;99.90;;;;;;5028177;28;20178;-84
2022/06/26 03:04:40;;;;;;;1.73;1.07;;;;;;;;;;5023713;28;20184;-84
2022/06/26 03:07:06;;;;;;;1.77;1.17;;;17.60;99.90;;;;;;5025302;28;20509;-83
2022/06/26 03:09:32;;;;;;;2.73;1.30;;;17.50;99.90;;;;;;5024718;28;20237;-83
2022/06/26 03:11:57;;;;;;;1.17;1.07;;;17.50;99.90;;;;;;5025347;28;20275;-84
2022/06/26 03:14:23;;;;;;;1.70;1.37;;;;;;;;;;5026348;28;20234;-83
2022/06/26 03:16:49;;;;;;;1.50;1.37;;;;;;;;;;5028696;28;20205;-83
2022/06/26 03:19:15;;;;;;;3.40;1.13;;;17.40;99.90;;;;;;5030515;28;20185;-83
2022/06/26 03:21:41;;;;;;;2.13;1.20;;;;;;;;;;5029069;28;20654;-84
2022/06/26 03:24:07;;;;;;;1.27;1.17;;;17.40;99.90;;;;;;5021671;28;20176;-83
2022/06/26 03:26:35;;;;;;;2.13;1.10;;;17.30;99.90;;;;;;5021804;28;20228;-83
2022/06/26 03:29:03;;;;;;;2.47;1.30;;;17.30;99.90;;;;;;5020171;28;20182;-83
2022/06/26 03:31:29;;;;;;;1.30;1.20;;;17.30;99.90;;;;;;5020633;28;20202;-83
2022/06/26 03:33:55;;;;;;;1.73;1.37;;;;;;;;;;5021434;28;20268;-83
2022/06/26 03:36:22;;;;;;;3.53;1.23;;;17.20;99.90;;;;;;5020003;28;20190;-84
2022/06/26 03:38:49;;;;;;;0.93;0.90;;;17.20;99.90;;;;;;5020111;28;20517;-83
2022/06/26 03:41:15;;;;;;;1.20;1.10;;;17.20;99.90;;;;;;5020925;28;20226;-83
2022/06/26 03:43:40;;;;;;;1.10;1.00;;;17.10;99.90;;;;;;5021529;28;20175;-84
2022/06/26 03:46:06;;;;;;;1.77;1.30;;;17.10;99.90;;;;;;5023496;28;20524;-84
2022/06/26 03:48:32;;;;;;;1.23;1.13;;;17.10;99.90;;;;;;5028218;28;20183;-84
2022/06/26 03:50:58;;;;;;;1.60;1.17;;;17.10;99.90;;;;;;5022981;28;20198;-84
2022/06/26 03:53:24;;;;;;;1.60;1.00;;;17.10;99.90;;;;;;5021301;28;20281;-84
2022/06/26 03:55:51;;;;;;;2.10;1.40;;;17.10;99.90;;;;;;5021599;28;20261;-84
2022/06/26 03:58:17;;;;;;;1.33;1.23;;;17.10;99.90;;;;;;5022885;28;20609;-84
2022/06/26 04:00:43;;;;;;;1.50;1.40;;;;;;;;;;5023539;28;20195;-83
2022/06/26 04:03:09;;;;;;;1.60;1.47;;;17.10;99.90;;;;;;5021648;28;20190;-83
2022/06/26 04:05:37;;;;;;;4.57;1.20;;;17.00;99.90;;;;;;5022001;28;20183;-84
2022/06/26 04:08:03;;;;;;;1.53;1.37;;;17.00;99.90;;;;;;5024055;28;20190;-84
2022/06/26 04:10:30;;;;;;;1.53;1.10;;;17.00;99.90;;;;;;5025041;28;20190;-84
2022/06/26 04:13:00;;;;;;;2.80;1.27;;;16.90;99.90;;;;;;5025166;28;20202;-83
2022/06/26 04:15:30;;;;;;;3.63;1.20;;;16.90;99.90;;;;;;5024109;28;20226;-83
2022/06/26 04:17:56;;;;;;;1.83;1.40;;;16.90;99.90;;;;;;5017529;28;20186;-83
2022/06/26 04:20:22;;;;;;;1.83;1.13;;;16.90;99.90;;;;;;5017004;28;20333;-83
2022/06/26 04:23:01;;;;;;;6.03;1.37;;;16.90;99.90;;;;;;5016925;28;20664;-84
2022/06/26 04:25:29;;;;;;;4.90;1.40;;;16.90;99.90;;;;;;5017590;28;20246;-84
2022/06/26 04:27:56;;;;;;;2.10;1.43;;;16.90;99.90;;;;;;5014014;28;20181;-84
2022/06/26 04:30:22;;;;;;;1.50;1.40;;;16.90;99.90;;;;;;5015792;28;20242;-84
2022/06/26 04:32:48;;;;;;;5.27;1.37;;;17.00;99.90;;;;;;5022986;28;20207;-84
2022/06/26 04:35:14;;;;;;;2.27;1.37;;;17.10;99.90;;;;;;5024227;28;20179;-84
2022/06/26 04:37:40;;;;;;;3.30;1.30;;;17.10;99.90;;;;;;5023068;28;20220;-84
2022/06/26 04:40:08;;;;;;;2.17;1.10;;;17.20;99.90;;;;;;5023121;28;20196;-84
2022/06/26 04:42:33;;;;;;;3.03;1.27;;;17.20;99.90;;;;;;5023946;28;20222;-84
2022/06/26 04:44:59;;;;;;;2.17;1.20;;;17.20;99.90;;;;;;5024468;28;20186;-84
2022/06/26 04:47:25;;;;;;;1.03;0.93;;;;;;;;;;5023839;28;20191;-83
2022/06/26 04:49:51;;;;;;;2.80;1.20;;;17.30;99.90;;;;;;5020748;28;20211;-84
2022/06/26 04:52:17;;;;;;;1.33;1.20;;;17.30;99.90;;;;;;5022609;28;20199;-83
2022/06/26 04:54:43;;;;;;;3.50;1.40;;;;;;;;;;5023026;28;20173;-84
2022/06/26 04:57:09;;;;;;;1.77;1.60;;;17.40;99.90;;;;;;5021605;28;20278;-84
2022/06/26 04:59:35;;;;;;;3.33;1.20;;;17.50;99.90;;;;;;5021614;28;20204;-84
2022/06/26 05:02:01;;;;;;;1.83;1.17;;;;;;;;;;5022571;28;20184;-84
2022/06/26 05:04:27;;;;;;;1.40;1.20;;;17.50;99.90;;;;;;5022102;28;20522;-84
2022/06/26 05:06:52;;;;;;;1.47;1.10;;;17.60;99.90;;;;;;5021424;28;20243;-84
2022/06/26 05:09:18;;;;;;;1.30;1.20;;;17.60;99.90;;;;;;5022767;28;20650;-85
2022/06/26 05:11:45;;;;;;;1.47;1.10;;;;;;;;;;5028503;28;20205;-85
2022/06/26 05:14:11;;;;;;;1.17;1.07;;;17.70;99.90;;;;;;5024839;28;20186;-85
2022/06/26 05:16:36;;;;;;;1.83;1.40;;;17.80;99.90;;;;;;5025150;28;20634;-85
2022/06/26 05:19:03;;;;;;;1.40;1.30;;;17.90;99.90;;;;;;5025441;28;20215;-84
2022/06/26 05:21:29;;;;;;;2.00;0.90;;;17.90;99.90;;;;;;5025503;28;20228;-84
2022/06/26 05:23:55;;;;;;;1.13;1.03;;;;;;;;;;5027161;28;20179;-84
2022/06/26 05:26:22;;;;;;;1.30;1.20;;;18.00;99.90;;;;;;5034051;28;20176;-84
2022/06/26 05:28:48;;;;;;;1.43;1.10;;;18.00;99.90;;;;;;5036105;28;20187;-84
2022/06/26 05:31:13;;;;;;;2.73;1.20;;;18.00;99.90;;;;;;5024212;28;20209;-84
2022/06/26 05:33:39;;;;;;;1.10;0.97;;;;;;;;;;5023852;28;20760;-84
2022/06/26 05:36:07;;;;;;;1.60;1.10;;;18.10;99.90;;;;;;5025116;28;20539;-84
2022/06/26 05:38:33;;;;;;;4.27;1.20;;;18.10;99.90;;;;;;5026535;28;20172;-84
2022/06/26 05:40:59;;;;;;;1.20;1.10;;;18.10;99.90;;;;;;5027594;28;20212;-84
2022/06/26 05:43:25;;;;;;;1.10;1.00;;;18.20;99.90;;;;;;5033556;28;20564;-84
2022/06/26 05:45:51;;;;;;;2.30;1.20;;;18.20;99.90;;;;;;5028154;28;20173;-84
2022/06/26 05:48:17;;;;;;;3.57;1.00;;;18.30;99.90;;;;;;5024618;28;20265;-84
2022/06/26 05:50:43;;;;;;;2.60;1.23;;;;;;;;;;5023318;28;20219;-84
2022/06/26 05:53:08;;;;;;;1.23;1.10;;;18.40;99.90;;;;;;5023698;28;20704;-84
2022/06/26 05:55:35;;;;;;;1.63;1.17;;;;;;;;;;5023697;28;20181;-85
2022/06/26 05:58:01;;;;;;;1.10;1.00;;;18.50;99.90;;;;;;5025378;28;20176;-85
2022/06/26 06:00:27;;;;;;;1.33;1.10;;;18.60;99.90;;;;;;5025933;28;20675;-85
2022/06/26 06:02:53;;;;;;;1.73;1.10;;;18.60;99.90;;;;;;5026549;28;20235;-85
2022/06/26 06:05:19;;;;;;;2.00;1.20;;;;;;;;;;5025767;28;20188;-85
2022/06/26 06:07:44;;;;;;;1.77;1.23;;;18.70;99.90;;;;;;5025802;28;20539;-84
2022/06/26 06:10:10;;;;;;;2.10;1.37;;;18.80;99.90;;;;;;5024789;28;20198;-84
2022/06/26 06:12:37;;;;;;;2.80;0.90;;;18.90;99.90;;;;;;5023042;28;20211;-84
2022/06/26 06:15:03;;;;;;;3.10;1.20;;;19.00;99.90;;;;;;5021721;28;20197;-83
2022/06/26 06:17:40;;;;;;;1.53;1.00;;;19.10;99.90;;;;;;5020469;28;20317;-84
2022/06/26 06:20:24;;;;;;;3.00;1.10;;;19.20;99.90;;;;;;5020889;28;20205;-83
2022/06/26 06:22:54;;;;;;;1.33;1.20;;;19.30;99.90;;;;;;5022052;28;20212;-83
2022/06/26 06:25:21;;;;;;;1.47;1.20;;;19.40;99.90;;;;;;5019306;28;20240;-83
2022/06/26 06:27:47;;;;;;;1.53;1.00;;;19.40;99.90;;;;;;5019314;28;20194;-83
2022/06/26 06:30:14;;;;;;;1.53;1.00;;;19.60;99.90;;;;;;5019143;28;20210;-83
2022/06/26 06:32:41;;;;;;;2.03;1.20;;;19.60;99.90;;;;;;5017345;28;20251;-83
2022/06/26 06:35:08;;;;;;;1.50;1.07;;;19.70;99.90;;;;;;5016595;28;20180;-85
2022/06/26 06:37:34;;;;;;;1.97;1.20;;;19.70;99.90;;;;;;5015063;28;20556;-84
2022/06/26 06:40:00;;;;;;;1.47;1.03;;;;;;;;;;5021279;28;20202;-83
2022/06/26 06:42:26;;;;;;;0.97;0.90;;;19.80;99.90;;;;;;5024807;28;20718;-83
2022/06/26 06:44:52;;;;;;;1.53;0.90;;;;;;;;;;5024671;28;20279;-84
2022/06/26 06:47:18;;;;;;;1.43;1.00;;;20.00;99.90;;;;;;5024625;28;20671;-84
2022/06/26 06:49:44;;;;;;;2.13;1.03;;;20.10;99.90;;;;;;5025698;28;20206;-84
2022/06/26 06:52:10;;;;;;;1.37;0.93;;;;;;;;;;5025239;28;20716;-84
2022/06/26 06:54:36;;;;;;;1.10;0.90;;;20.20;99.90;;;;;;5027357;28;20577;-83
2022/06/26 06:57:02;;;;;;;1.10;0.70;;;20.30;99.90;;;;;;5026862;28;20179;-83
2022/06/26 06:59:28;;;;;;;1.43;0.90;;;;;;;;;;5025998;28;20178;-83
2022/06/26 07:01:54;;;;;;;1.63;1.00;;;20.40;99.90;;;;;;5024477;28;20242;-82
2022/06/26 07:04:20;;;;;;;1.27;1.10;;;20.50;99.90;;;;;;5027153;28;20183;-83
2022/06/26 07:06:47;;;;;;;0.90;0.90;;;20.60;99.90;;;;;;5025023;28;20221;-84
2022/06/26 07:09:13;;;;;;;1.10;0.90;;;20.70;99.90;;;;;;5023604;28;20188;-83
2022/06/26 07:11:39;;;;;;;1.83;0.90;;;20.70;99.90;;;;;;5024368;28;20199;-84
2022/06/26 07:14:05;;;;;;;1.37;1.10;;;;;;;;;;5023954;28;20301;-84
2022/06/26 07:16:31;;;;;;;1.00;0.80;;;20.80;99.90;;;;;;5024108;28;20186;-84
2022/06/26 07:18:56;;;;;;;2.53;1.10;;;20.90;99.90;;;;;;5023537;28;20171;-83
2022/06/26 07:21:22;;;;;;;2.93;1.40;;;21.00;99.90;;;;;;5022400;28;20226;-83
2022/06/26 07:23:48;;;;;;;1.40;1.00;;;21.10;99.90;;;;;;5022631;28;20583;-83
2022/06/26 07:26:14;;;;;;;1.50;1.13;;;21.30;99.90;;;;;;5024325;28;20183;-83
2022/06/26 07:28:40;;;;;;;2.03;1.10;;;21.50;99.90;;;;;;5022186;28;20182;-83
2022/06/26 07:31:06;;;;;;;3.47;1.27;;;21.60;99.90;;;;;;5023559;28;20205;-83
2022/06/26 07:36:16;;;;;;;0.80;0.80;;;21.80;99.90;;;;;;5034033;28;20178;-83
2022/06/26 07:38:42;;;;;;;1.40;0.83;;;21.90;99.90;;;;;;5028640;28;20175;-84
2022/06/26 07:41:08;;;;;;;0.80;0.80;;;22.10;99.90;;;;;;5024993;28;20695;-83
2022/06/26 07:43:34;;;;;;;4.20;1.00;;;22.20;99.90;;;;;;5022331;28;20712;-85
2022/06/26 07:45:59;;;;;;;2.07;0.90;;;22.20;99.90;;;;;;5019469;28;20703;-85
2022/06/26 07:48:25;;;;;;;2.83;0.90;;;22.30;99.90;;;;;;5020575;28;20187;-85
2022/06/26 07:50:51;;;;;;;0.70;0.70;;;;;;;;;;5022006;28;20302;-85
2022/06/26 07:53:18;;;;;;;0.90;0.77;;;22.50;99.90;;;;;;5021421;28;20207;-85
2022/06/26 07:55:43;;;;;;;2.60;1.00;;;22.50;99.90;;;;;;5022448;28;20171;-85
2022/06/26 07:58:09;;;;;;;1.00;0.90;;;22.60;99.90;;;;;;5020666;28;20189;-85
2022/06/26 08:00:35;;;;;;;1.13;0.90;;;22.70;99.90;;;;;;5022256;28;20225;-85
2022/06/26 08:03:09;;;;;;;0.90;0.90;;;22.90;99.90;;;;;;5018902;28;20178;-86
2022/06/26 08:05:36;;;;;;;1.67;1.00;;;23.00;99.90;;;;;;5018550;28;20193;-85
2022/06/26 08:08:03;;;;;;;1.17;1.07;;;23.10;99.90;;;;;;5017705;28;20184;-84
2022/06/26 08:10:29;;;;;;;1.00;0.90;;;23.10;99.90;;;;;;5018081;28;20597;-84
2022/06/26 08:12:55;;;;;;;0.90;0.90;;;23.30;99.90;;;;;;5018634;28;20203;-84
2022/06/26 08:15:22;;;;;;;1.17;1.00;;;23.40;99.90;;;;;;5017778;28;20202;-83
2022/06/26 08:17:47;;;;;;;1.10;1.00;;;23.50;99.90;;;;;;5017623;28;20237;-82
2022/06/26 08:20:13;;;;;;;1.20;1.10;;;23.60;99.90;;;;;;5017555;28;20541;-84
2022/06/26 08:22:39;;;;;;;1.00;0.97;;;23.70;99.90;;;;;;5018689;28;20178;-84
2022/06/26 08:25:05;;;;;;;0.80;0.80;;;23.90;99.90;;;;;;5016394;28;20207;-82
2022/06/26 08:27:31;;;;;;;3.13;1.07;;;24.00;99.90;;;;;;5016426;28;20188;-84
2022/06/26 08:29:57;;;;;;;1.10;0.87;;;24.00;99.90;;;;;;5016588;28;20644;-84
2022/06/26 08:32:23;;;;;;;0.83;0.80;;;24.10;99.90;;;;;;5016221;28;20211;-84
2022/06/26 08:34:48;;;;;;;1.70;0.97;;;24.20;99.90;;;;;;5015396;28;20192;-84
2022/06/26 08:37:16;;;;;;;0.80;0.80;;;24.40;99.90;;;;;;5015300;28;20276;-84
2022/06/26 08:39:42;;;;;;;0.80;0.80;;;24.60;99.90;;;;;;5014691;28;20238;-83
2022/06/26 08:42:09;;;;;;;1.27;0.93;;;24.60;99.90;;;;;;5013757;28;20183;-84
2022/06/26 08:44:43;;;;;;;1.03;0.83;;;24.60;99.90;;;;;;5012195;28;20192;-83
2022/06/26 08:47:14;;;;;;;1.03;0.90;;;24.70;99.90;;;;;;5019581;28;20166;-84
2022/06/26 08:49:41;;;;;;;1.10;1.00;;;24.90;99.90;;;;;;5020093;28;20229;-85
2022/06/26 08:52:10;;;;;;;2.30;1.10;;;24.90;99.90;;;;;;5021314;28;20678;-83
2022/06/26 08:54:37;;;;;;;1.00;0.90;;;24.90;99.90;;;;;;5023182;28;20184;-83
2022/06/26 08:57:04;;;;;;;1.23;1.00;;;25.00;99.90;;;;;;5023457;28;20209;-84
2022/06/26 08:59:30;;;;;;;0.80;0.80;;;25.20;99.90;;;;;;5022769;28;20260;-84
2022/06/26 09:01:56;;;;;;;1.20;1.10;;;25.20;99.90;;;;;;5022117;28;20200;-85
2022/06/26 09:04:22;;;;;;;1.10;1.00;;;;;;;;;;5020019;28;20181;-85
2022/06/26 09:06:48;;;;;;;2.60;1.17;;;25.50;99.90;;;;;;5021421;28;20229;-84
2022/06/26 09:09:23;;;;;;;2.00;1.00;;;25.50;99.90;;;;;;5020136;28;20182;-84
2022/06/26 09:11:51;;;;;;;1.13;0.90;;;25.60;99.90;;;;;;5018421;28;20293;-82
2022/06/26 09:14:17;;;;;;;0.80;0.80;;;25.70;99.90;;;;;;5017561;28;20242;-84
2022/06/26 09:16:45;;;;;;;4.30;0.80;;;25.80;99.90;;;;;;5017427;28;20175;-83
2022/06/26 09:19:13;;;;;;;1.93;0.70;;;25.90;99.90;;;;;;5019324;28;20222;-84
2022/06/26 09:21:39;;;;;;;2.03;0.77;;;;;;;;;;5018888;28;20269;-84
2022/06/26 09:24:10;;;;;;;0.83;0.83;;;26.00;99.90;;;;;;5020379;28;20175;-84
2022/06/26 09:26:37;;;;;;;3.00;0.83;;;26.10;99.90;;;;;;5020104;28;20167;-84
2022/06/26 09:29:14;;;;;;;0.90;0.90;;;26.20;99.90;;;;;;5018238;28;20181;-85
2022/06/26 09:31:42;;;;;;;0.73;0.70;;;26.40;99.90;;;;;;5020836;28;20203;-84
2022/06/26 09:34:20;;;;;;;0.70;0.57;;;26.40;99.90;;;;;;5017580;28;20208;-83
2022/06/26 09:37:04;;;;;;;1.50;0.80;;;26.50;99.90;;;;;;5020472;28;20235;-84
2022/06/26 09:39:31;;;;;;;3.00;0.73;;;26.80;99.90;;;;;;5023779;28;20167;-85
2022/06/26 09:41:57;;;;;;;0.70;0.60;;;26.80;99.90;;;;;;5028416;28;20210;-84
2022/06/26 09:44:23;;;;;;;0.60;0.60;;;26.90;99.90;;;;;;5026897;28;20191;-83
2022/06/26 09:46:49;;;;;;;2.10;0.73;;;27.00;99.90;;;;;;5000274;28;20520;-84
2022/06/26 09:49:17;;;;;;;0.80;0.70;;;27.10;99.90;;;;;;5017067;28;20186;-85
2022/06/26 09:51:44;;;;;;;0.77;0.60;;;27.20;99.90;;;;;;5020039;28;20200;-86
2022/06/26 09:54:10;;;;;;;1.27;0.60;;;27.30;99.90;;;;;;5023159;28;20212;-84
2022/06/26 09:56:35;;;;;;;0.90;0.70;;;27.30;99.90;;;;;;5021696;28;20192;-84
2022/06/26 09:59:02;;;;;;;3.13;0.70;;;27.40;99.90;;;;;;5024605;28;20183;-83
2022/06/26 10:07:04;;;;;;;0.80;0.70;;;27.80;99.90;;;;;;5025273;28;20180;-86
2022/06/26 10:09:30;;;;;;;0.63;0.60;;;28.00;99.90;;;;;;5025500;28;20172;-87
2022/06/26 10:11:59;;;;;;;1.00;0.70;;;28.00;99.90;;;;;;5026351;28;20250;-87
2022/06/26 10:14:30;;;;;;;0.60;0.60;;;28.10;99.90;;;;;;5024587;28;20289;-85
2022/06/26 10:17:26;;;;;;;1.03;0.77;;;28.20;99.90;;;;;;5025198;28;20179;-82
2022/06/26 10:19:58;;;;;;;2.30;0.70;;;28.30;99.90;;;;;;5028901;28;20282;-84
2022/06/26 10:22:24;;;;;;;1.93;0.77;;;28.30;99.90;;;;;;5030454;28;20167;-84
2022/06/26 10:24:59;;;;;;;1.30;1.10;;;28.30;99.90;;;;;;5030785;28;20205;-84
2022/06/26 10:27:32;;;;;;;2.40;0.83;;;28.40;99.90;;;;;;5027375;28;20181;-85
2022/06/26 10:30:06;;;;;;;1.20;0.93;;;28.60;99.90;;;;;;5028475;28;20554;-86
2022/06/26 10:32:33;;;;;;;1.23;0.90;;;28.70;99.90;;;;;;5028166;28;20728;-84
2022/06/26 10:34:58;;;;;;;2.53;0.70;;;28.80;99.90;;;;;;5026884;28;20253;-83
2022/06/26 10:37:25;;;;;;;1.30;1.10;;;28.80;99.90;;;;;;5026437;28;20183;-83
2022/06/26 10:39:53;;;;;;;1.07;0.73;;;28.90;99.90;;;;;;5025199;28;20197;-83
2022/06/26 10:45:14;;;;;;;0.80;0.77;;;28.90;99.90;;;;;;5023918;28;20195;-83
2022/06/26 10:47:51;;;;;;;2.20;0.70;;;28.90;99.90;;;;;;5022870;28;20276;-82
2022/06/26 10:50:28;;;;;;;1.00;0.70;;;28.90;99.90;;;;;;5022627;28;20222;-83
2022/06/26 10:53:11;;;;;;;0.87;0.60;;;29.00;99.90;;;;;;5032953;28;20280;-84
2022/06/26 10:55:38;;;;;;;2.27;0.70;;;29.10;99.90;;;;;;5034995;28;20178;-85
2022/06/26 10:58:04;;;;;;;1.20;0.80;;;29.30;99.90;;;;;;5024124;28;20180;-84
2022/06/26 11:00:30;;;;;;;1.57;0.70;;;29.50;99.90;;;;;;5022885;28;20197;-84
2022/06/26 11:02:55;;;;;;;2.00;0.80;;;29.50;99.90;;;;;;5024047;28;20525;-84
2022/06/26 11:05:21;;;;;;;0.50;0.50;;;29.70;99.90;;;;;;5022039;28;20207;-84
2022/06/26 11:07:49;;;;;;;0.70;0.67;;;29.70;99.90;;;;;;5018203;28;20174;-82
2022/06/26 11:10:18;;;;;;;0.50;0.50;;;29.60;99.90;;;;;;5020664;28;20285;-82
2022/06/26 11:12:49;;;;;;;0.97;0.60;;;29.60;99.90;;;;;;5022523;28;20760;-83
2022/06/26 11:15:32;;;;;;;0.80;0.60;;;29.60;99.90;;;;;;5021146;28;20202;-81
2022/06/26 11:18:03;;;;;;;1.03;0.80;;;29.80;99.90;;;;;;5019681;28;20171;-85
2022/06/26 11:20:47;;;;;;;1.53;0.80;;;30.00;99.90;;;;;;5020496;28;20208;-83
2022/06/26 11:23:13;;;;;;;0.70;0.70;;;30.10;99.90;;;;;;5022258;28;20515;-83
2022/06/26 11:25:41;;;;;;;0.70;0.70;;;30.40;99.90;;;;;;5018807;28;20207;-82
2022/06/26 11:28:09;;;;;;;1.17;1.03;;;30.50;99.90;;;;;;5021781;28;20182;-83
2022/06/26 11:30:37;;;;;;;1.53;1.00;;;30.70;99.90;;;;;;5021780;28;20254;-84
2022/06/26 11:33:04;;;;;;;1.57;0.90;;;30.90;99.90;;;;;;5023219;28;20253;-85
2022/06/26 11:35:30;;;;;;;1.87;0.90;;;31.00;99.90;;;;;;5024394;28;20182;-83
2022/06/26 11:37:56;;;;;;;1.03;0.80;;;31.00;99.90;;;;;;5021069;28;20213;-78
2022/06/26 11:40:22;;;;;;;0.83;0.80;;;31.00;99.90;;;;;;5022264;28;20217;-83
2022/06/26 11:42:55;;;;;;;1.10;0.87;;;31.00;99.90;;;;;;5020259;28;20209;-83
2022/06/26 11:45:24;;;;;;;0.90;0.70;;;31.00;99.90;;;;;;5019766;28;20185;-84
2022/06/26 11:47:50;;;;;;;0.80;0.80;;;30.90;99.90;;;;;;5027926;28;20199;-84
2022/06/26 11:50:26;;;;;;;1.83;0.90;;;31.00;99.90;;;;;;5039552;28;20195;-82
2022/06/26 11:52:56;;;;;;;1.50;0.87;;;30.80;99.80;;;;;;5029251;28;20209;-84
2022/06/26 11:55:22;;;;;;;2.13;0.77;;;30.70;99.90;;;;;;5022286;28;20247;-83
2022/06/26 11:57:48;;;;;;;0.80;0.80;;;30.70;99.90;;;;;;5024377;28;20190;-83
2022/06/26 12:00:17;;;;;;;0.60;0.60;;;30.90;99.90;;;;;;5023544;28;20227;-83
2022/06/26 12:02:46;;;;;;;2.83;0.90;;;30.90;99.90;;;;;;5024801;28;20201;-84
2022/06/26 12:05:11;;;;;;;1.20;0.83;;;31.10;99.90;;;;;;5023411;28;20184;-84
2022/06/26 12:07:41;;;;;;;0.60;0.60;;;31.20;99.90;;;;;;5023544;28;20172;-83
2022/06/26 12:10:08;;;;;;;0.53;0.53;;;31.30;99.90;;;;;;5022092;28;20252;-83
2022/06/26 12:12:34;;;;;;;1.30;0.70;;;31.40;99.90;;;;;;5023947;28;20547;-84
2022/06/26 12:14:59;;;;;;;0.90;0.70;;;31.40;99.20;;;;;;5024876;28;20204;-83
2022/06/26 12:17:27;;;;;;;1.00;0.90;;;31.30;99.90;;;;;;5025396;28;20168;-83
2022/06/26 12:19:54;;;;;;;1.40;0.70;;;31.30;97.70;;;;;;5024687;28;20254;-82
2022/06/26 12:22:28;;;;;;;1.00;0.90;;;31.40;99.90;;;;;;5028357;28;20193;-83
2022/06/26 12:24:55;;;;;;;0.83;0.80;;;31.50;98.00;;;;;;5022596;28;20216;-82
2022/06/26 12:27:32;;;;;;;1.27;0.80;;;31.50;98.80;;;;;;5022144;28;20204;-81
2022/06/26 12:29:57;;;;;;;1.83;1.13;;;31.50;99.30;;;;;;5022065;28;20198;-81
2022/06/26 12:32:23;;;;;;;1.40;0.90;;;31.50;99.90;;;;;;5022037;28;20205;-82
2022/06/26 12:34:48;;;;;;;1.27;0.83;;;31.50;96.70;;;;;;5024189;28;20594;-81
2022/06/26 12:37:14;;;;;;;0.73;0.73;;;31.50;98.50;;;;;;5020895;28;20267;-80
2022/06/26 12:39:40;;;;;;;0.90;0.90;;;31.40;99.20;;;;;;5019318;28;20177;-82
2022/06/26 12:42:06;;;;;;;1.83;0.77;;;31.50;97.70;;;;;;5019086;28;20181;-80
2022/06/26 12:44:32;;;;;;;0.70;0.70;;;31.70;99.90;;;;;;5019073;28;20546;-81
2022/06/26 12:46:58;;;;;;;1.97;0.80;;;31.80;96.40;;;;;;5017277;28;20636;-81
2022/06/26 12:49:24;;;;;;;0.90;0.77;;;31.80;94.00;;;;;;5016240;28;20193;-80
2022/06/26 12:51:52;;;;;;;1.07;0.97;;;31.90;97.90;;;;;;5015747;28;20208;-82
2022/06/26 12:54:18;;;;;;;1.07;0.90;;;32.10;97.40;;;;;;5022468;28;20202;-83
2022/06/26 12:56:44;;;;;;;0.83;0.83;;;32.00;91.40;;;;;;5025220;28;20186;-84
2022/06/26 12:59:10;;;;;;;0.70;0.70;;;32.10;91.30;;;;;;5023927;28;20208;-83
2022/06/26 13:01:35;;;;;;;1.73;0.90;;;32.20;95.10;;;;;;5024657;28;20212;-83
2022/06/26 13:04:01;;;;;;;1.87;0.80;;;32.30;92.60;;;;;;5023467;28;20257;-83
2022/06/26 13:06:26;;;;;;;1.20;0.90;;;32.40;95.30;;;;;;5022777;28;20266;-83
2022/06/26 13:08:52;;;;;;;0.90;0.90;;;32.60;93.70;;;;;;5022828;28;20180;-83
2022/06/26 13:11:24;;;;;;;1.00;1.00;;;32.90;95.50;;;;;;5025077;28;20192;-83